createdAt,value
2019-03-25T00:01:25.285Z,3.70
2019-03-25T00:03:53.784Z,2.87
2019-03-25T00:06:22.205Z,4.53
2019-03-25T00:09:03.271Z,4.83
2019-03-25T00:11:20.757Z,4.45
2019-03-25T00:13:49.212Z,4.37
2019-03-25T00:16:17.670Z,4.60
2019-03-25T00:18:46.211Z,4.05
2019-03-25T00:21:14.752Z,4.10
2019-03-25T00:23:43.264Z,5.10
2019-03-25T00:26:11.740Z,4.53
2019-03-25T00:28:40.191Z,4.15
2019-03-25T00:31:08.631Z,4.70
2019-03-25T00:33:37.082Z,6.15
2019-03-25T00:36:05.529Z,4.87
2019-03-25T00:38:33.977Z,4.83
2019-03-25T00:41:02.441Z,5.20
2019-03-25T00:43:30.891Z,4.67
2019-03-25T00:45:59.370Z,5.30
2019-03-25T00:48:27.833Z,5.20
2019-03-25T00:50:56.630Z,6.17
2019-03-25T00:53:25.094Z,5.12
2019-03-25T00:55:53.539Z,4.65
2019-03-25T00:58:22.009Z,6.08
2019-03-25T01:00:50.444Z,5.70
2019-03-25T01:03:18.909Z,4.62
2019-03-25T01:05:47.342Z,4.58
2019-03-25T01:08:15.774Z,4.90
2019-03-25T01:10:44.282Z,5.60
2019-03-25T01:13:12.689Z,4.60
2019-03-25T01:15:41.135Z,5.67
2019-03-25T01:18:16.671Z,5.45
2019-03-25T01:20:39.676Z,4.22
2019-03-25T01:23:08.115Z,4.72
2019-03-25T01:25:36.560Z,3.87
2019-03-25T01:28:05.020Z,3.90
2019-03-25T01:30:33.460Z,5.28
2019-03-25T01:33:01.927Z,4.20
2019-03-25T01:35:30.347Z,4.05
2019-03-25T01:37:58.812Z,4.20
2019-03-25T01:40:27.259Z,3.70
2019-03-25T01:42:55.733Z,3.75
2019-03-25T01:45:24.172Z,4.10
2019-03-25T01:47:52.628Z,4.72
2019-03-25T01:50:21.070Z,4.75
2019-03-25T01:52:49.559Z,4.20
2019-03-25T01:55:17.981Z,4.70
2019-03-25T01:57:46.448Z,4.22
2019-03-25T02:00:15.383Z,4.47
2019-03-25T02:02:43.829Z,4.55
2019-03-25T02:05:12.319Z,5.03
2019-03-25T02:07:40.736Z,5.20
2019-03-25T02:10:09.903Z,4.65
2019-03-25T02:12:38.337Z,4.75
2019-03-25T02:15:30.248Z,4.92
2019-03-25T02:17:58.667Z,5.03
2019-03-25T02:20:27.138Z,4.75
2019-03-25T02:22:55.636Z,5.45
2019-03-25T02:25:25.590Z,5.53
2019-03-25T02:27:54.507Z,5.83
2019-03-25T02:30:22.929Z,4.50
2019-03-25T02:32:51.371Z,4.53
2019-03-25T02:35:19.795Z,5.58
2019-03-25T02:37:50.952Z,4.53
2019-03-25T02:40:19.377Z,4.83
2019-03-25T02:42:49.889Z,5.70
2019-03-25T02:45:18.295Z,5.37
2019-03-25T02:47:46.735Z,5.58
2019-03-25T02:50:15.173Z,5.05
2019-03-25T02:52:43.607Z,5.00
2019-03-25T02:55:12.050Z,4.67
2019-03-25T02:57:40.470Z,5.28
2019-03-25T03:00:08.922Z,5.45
2019-03-25T03:02:37.333Z,6.05
2019-03-25T03:05:06.380Z,5.42
2019-03-25T03:07:34.796Z,6.50
2019-03-25T03:10:04.040Z,4.70
2019-03-25T03:12:32.477Z,5.70
2019-03-25T03:15:06.178Z,6.05
2019-03-25T03:17:34.608Z,4.85
2019-03-25T03:20:03.132Z,5.40
2019-03-25T03:22:31.572Z,6.58
2019-03-25T03:25:00.016Z,4.72
2019-03-25T03:27:29.841Z,5.20
2019-03-25T03:29:58.725Z,5.22
2019-03-25T03:32:27.290Z,5.17
2019-03-25T03:34:55.720Z,5.97
2019-03-25T03:37:24.159Z,5.33
2019-03-25T03:39:52.576Z,4.37
2019-03-25T03:42:21.068Z,5.33
2019-03-25T03:44:49.467Z,4.97
2019-03-25T03:47:17.910Z,4.83
2019-03-25T03:49:46.324Z,4.30
2019-03-25T03:52:14.771Z,5.87
2019-03-25T03:54:43.206Z,4.17
2019-03-25T03:57:11.655Z,4.65
2019-03-25T03:59:40.063Z,5.47
2019-03-25T04:02:08.485Z,4.87
2019-03-25T04:04:36.923Z,4.33
2019-03-25T04:07:05.362Z,5.55
2019-03-25T04:09:33.805Z,5.33
2019-03-25T04:12:02.226Z,5.97
2019-03-25T04:14:30.652Z,5.90
2019-03-25T04:16:59.081Z,7.70
2019-03-25T04:19:27.495Z,5.33
2019-03-25T04:21:55.958Z,5.55
2019-03-25T04:24:24.365Z,4.28
2019-03-25T04:26:52.809Z,4.78
2019-03-25T04:29:21.232Z,5.05
2019-03-25T04:31:49.677Z,5.15
2019-03-25T04:34:18.110Z,6.12
2019-03-25T04:36:46.550Z,5.97
2019-03-25T04:42:02.441Z,4.65
2019-03-25T04:44:31.663Z,5.53
2019-03-25T04:47:00.099Z,6.00
2019-03-25T04:49:28.540Z,5.60
2019-03-25T04:51:56.959Z,6.75
2019-03-25T04:54:25.401Z,6.87
2019-03-25T04:56:53.816Z,6.83
2019-03-25T04:59:22.248Z,7.28
2019-03-25T05:01:50.673Z,8.30
2019-03-25T05:04:38.239Z,8.83
2019-03-25T05:06:58.047Z,7.35
2019-03-25T05:09:29.467Z,8.55
2019-03-25T05:11:57.880Z,8.80
2019-03-25T05:14:26.313Z,7.97
2019-03-25T05:16:54.763Z,7.90
2019-03-25T05:19:24.328Z,8.28
2019-03-25T05:21:52.768Z,7.65
2019-03-25T05:24:21.183Z,8.65
2019-03-25T05:26:52.600Z,7.70
2019-03-25T05:29:21.018Z,8.18
2019-03-25T05:31:49.464Z,8.25
2019-03-25T05:34:19.459Z,8.03
2019-03-25T05:36:47.895Z,8.08
2019-03-25T05:39:16.346Z,8.80
2019-03-25T05:41:44.775Z,7.67
2019-03-25T05:44:13.832Z,9.03
2019-03-25T05:46:42.211Z,8.60
2019-03-25T05:49:10.615Z,8.03
2019-03-25T05:51:39.000Z,8.08
2019-03-25T05:54:07.380Z,7.40
2019-03-25T05:56:35.766Z,7.08
2019-03-25T05:59:05.574Z,6.62
2019-03-25T06:01:33.991Z,5.85
2019-03-25T06:04:23.804Z,6.50
2019-03-25T06:06:52.314Z,6.47
2019-03-25T06:09:22.323Z,6.85
2019-03-25T06:11:50.747Z,5.97
2019-03-25T06:14:19.163Z,6.30
2019-03-25T06:16:50.439Z,5.45
2019-03-25T06:19:18.852Z,6.30
2019-03-25T06:21:48.591Z,7.25
2019-03-25T06:24:17.004Z,6.37
2019-03-25T06:26:45.447Z,6.72
2019-03-25T06:29:13.812Z,5.15
2019-03-25T06:31:42.239Z,6.65
2019-03-25T06:34:11.809Z,6.25
2019-03-25T06:36:42.236Z,6.97
2019-03-25T06:39:10.677Z,6.08
2019-03-25T06:41:39.095Z,6.47
2019-03-25T06:44:29.653Z,5.70
2019-03-25T06:47:06.680Z,5.50
2019-03-25T06:49:35.075Z,5.58
2019-03-25T06:52:06.971Z,6.10
2019-03-25T06:54:48.438Z,5.85
2019-03-25T06:57:25.254Z,4.12
2019-03-25T06:59:46.991Z,5.53
2019-03-25T07:02:16.613Z,4.30
2019-03-25T07:04:47.300Z,4.60
2019-03-25T07:07:16.914Z,4.87
2019-03-25T07:09:48.308Z,3.37
2019-03-25T07:12:16.750Z,4.53
2019-03-25T07:14:46.296Z,4.35
2019-03-25T07:17:14.744Z,4.22
2019-03-25T07:19:43.139Z,4.08
2019-03-25T07:22:14.638Z,3.62
2019-03-25T07:24:43.053Z,3.92
2019-03-25T07:27:11.468Z,3.75
2019-03-25T07:29:39.872Z,4.17
2019-03-25T07:32:09.105Z,4.33
2019-03-25T07:34:37.827Z,3.98
2019-03-25T07:37:06.197Z,3.67
2019-03-25T07:39:36.824Z,3.72
2019-03-25T07:42:05.240Z,4.15
2019-03-25T07:44:36.696Z,3.58
2019-03-25T07:47:09.208Z,3.75
2019-03-25T07:49:37.590Z,3.83
2019-03-25T07:52:07.129Z,5.80
2019-03-25T07:54:35.750Z,3.98
2019-03-25T07:57:06.859Z,3.95
2019-03-25T07:59:35.247Z,3.65
2019-03-25T08:02:04.406Z,3.02
2019-03-25T08:04:32.811Z,3.92
2019-03-25T08:07:02.484Z,3.33
2019-03-25T08:09:32.165Z,3.47
2019-03-25T08:12:00.642Z,4.47
2019-03-25T08:14:29.016Z,3.50
2019-03-25T08:16:57.452Z,3.02
2019-03-25T08:19:25.868Z,4.30
2019-03-25T08:21:54.299Z,2.98
2019-03-25T08:24:26.091Z,3.17
2019-03-25T08:26:54.535Z,3.02
2019-03-25T08:29:22.948Z,3.00
2019-03-25T08:31:51.389Z,3.72
2019-03-25T08:34:19.931Z,3.25
2019-03-25T08:36:48.357Z,3.30
2019-03-25T08:39:16.781Z,2.92
2019-03-25T08:41:45.208Z,3.40
2019-03-25T08:44:13.643Z,2.95
2019-03-25T08:46:42.022Z,3.52
2019-03-25T08:49:12.142Z,2.30
2019-03-25T08:51:40.753Z,3.30
2019-03-25T08:54:09.144Z,4.42
2019-03-25T08:56:37.532Z,3.42
2019-03-25T08:59:05.916Z,3.25
2019-03-25T09:01:36.525Z,4.03
2019-03-25T09:04:04.887Z,3.17
2019-03-25T09:06:33.263Z,3.22
2019-03-25T09:09:01.624Z,3.45
2019-03-25T09:11:30.064Z,4.15
2019-03-25T09:13:58.492Z,3.80
2019-03-25T09:16:26.872Z,3.15
2019-03-25T09:18:55.296Z,3.27
2019-03-25T09:21:23.733Z,2.92
2019-03-25T09:23:52.096Z,3.30
2019-03-25T09:26:20.483Z,3.58
2019-03-25T09:28:48.886Z,3.10
2019-03-25T09:31:17.265Z,3.75
2019-03-25T09:33:45.658Z,2.83
2019-03-25T09:36:14.035Z,3.22
2019-03-25T09:38:42.449Z,2.83
2019-03-25T09:41:10.812Z,3.55
2019-03-25T09:43:39.205Z,2.80
2019-03-25T09:46:07.595Z,2.85
2019-03-25T09:48:36.009Z,2.85
2019-03-25T09:51:04.424Z,2.85
2019-03-25T09:53:32.847Z,2.87
2019-03-25T09:56:01.279Z,3.17
2019-03-25T09:58:36.208Z,3.15
2019-03-25T10:01:09.143Z,2.47
2019-03-25T10:03:37.581Z,2.10
2019-03-25T10:06:06.031Z,2.87
2019-03-25T10:08:34.454Z,2.80
2019-03-25T10:11:02.893Z,2.62
2019-03-25T10:13:31.300Z,2.50
2019-03-25T10:15:59.829Z,2.50
2019-03-25T10:18:30.780Z,2.40
2019-03-25T10:20:58.886Z,2.40
2019-03-25T10:23:27.293Z,2.72
2019-03-25T10:25:56.820Z,1.92
2019-03-25T10:28:47.524Z,1.98
2019-03-25T10:31:09.046Z,2.15
2019-03-25T10:33:36.673Z,2.47
2019-03-25T10:36:05.048Z,2.05
2019-03-25T10:38:33.434Z,2.17
2019-03-25T10:41:01.841Z,1.95
2019-03-25T10:43:30.220Z,1.82
2019-03-25T10:45:58.613Z,2.02
2019-03-25T10:48:26.973Z,5.12
2019-03-25T10:50:55.423Z,5.50
2019-03-25T10:53:23.837Z,4.25
2019-03-25T10:55:53.371Z,2.33
2019-03-25T10:58:21.756Z,2.20
2019-03-25T11:00:50.193Z,1.82
2019-03-25T11:03:18.616Z,2.75
2019-03-25T11:05:46.995Z,2.10
2019-03-25T11:08:15.385Z,2.27
2019-03-25T11:10:43.740Z,1.90
2019-03-25T11:13:12.129Z,1.70
2019-03-25T11:15:40.487Z,1.37
2019-03-25T11:18:08.953Z,1.75
2019-03-25T11:20:37.484Z,1.82
2019-03-25T11:23:05.941Z,2.35
2019-03-25T11:25:34.335Z,2.30
2019-03-25T11:28:02.773Z,2.67
2019-03-25T11:30:49.510Z,2.33
2019-03-25T11:33:17.953Z,3.35
2019-03-25T11:35:46.347Z,1.82
2019-03-25T11:38:14.789Z,1.67
2019-03-25T11:40:43.213Z,2.20
2019-03-25T11:43:11.644Z,2.25
2019-03-25T11:45:40.075Z,2.08
2019-03-25T11:48:08.501Z,1.80
2019-03-25T11:50:36.940Z,1.55
2019-03-25T11:53:05.357Z,1.77
2019-03-25T11:55:33.783Z,2.02
2019-03-25T11:58:02.172Z,2.52
2019-03-25T12:00:30.604Z,2.27
2019-03-25T12:02:58.973Z,1.55
2019-03-25T12:05:27.515Z,2.33
2019-03-25T12:07:55.924Z,1.17
2019-03-25T12:10:24.308Z,2.05
2019-03-25T12:12:52.692Z,1.90
2019-03-25T12:15:27.303Z,1.92
2019-03-25T12:17:55.800Z,2.08
2019-03-25T12:20:24.207Z,2.17
2019-03-25T12:22:52.642Z,1.80
2019-03-25T12:25:21.083Z,2.42
2019-03-25T12:27:52.543Z,1.87
2019-03-25T12:30:20.975Z,2.12
2019-03-25T12:32:49.403Z,2.25
2019-03-25T12:35:17.840Z,1.40
2019-03-25T12:37:46.248Z,2.58
2019-03-25T12:40:14.688Z,2.17
2019-03-25T12:42:43.104Z,2.25
2019-03-25T12:45:11.531Z,1.60
2019-03-25T12:47:39.970Z,1.22
2019-03-25T12:50:08.383Z,1.35
2019-03-25T12:52:36.827Z,1.05
2019-03-25T12:55:05.536Z,1.07
2019-03-25T12:57:33.963Z,1.00
2019-03-25T13:00:02.376Z,1.30
2019-03-25T13:02:30.803Z,1.20
2019-03-25T13:04:59.211Z,1.57
2019-03-25T13:07:27.653Z,1.00
2019-03-25T13:09:56.079Z,0.60
2019-03-25T13:12:24.495Z,0.80
2019-03-25T13:14:52.941Z,0.75
2019-03-25T13:17:25.586Z,0.50
2019-03-25T13:19:55.205Z,0.70
2019-03-25T13:22:23.649Z,0.80
2019-03-25T13:24:52.108Z,0.98
2019-03-25T13:27:20.539Z,1.02
2019-03-25T13:29:52.896Z,1.55
2019-03-25T13:32:19.070Z,1.10
2019-03-25T13:34:47.506Z,0.90
2019-03-25T13:37:15.960Z,1.27
2019-03-25T13:39:44.336Z,0.80
2019-03-25T13:42:12.763Z,0.62
2019-03-25T13:44:41.113Z,1.00
2019-03-25T13:47:09.513Z,0.70
2019-03-25T13:49:37.896Z,0.90
2019-03-25T13:52:06.263Z,0.90
2019-03-25T13:54:34.652Z,0.90
2019-03-25T13:57:03.130Z,1.10
2019-03-25T13:59:31.583Z,1.32
2019-03-25T14:01:59.960Z,1.85
2019-03-25T14:04:28.394Z,1.55
2019-03-25T14:06:56.751Z,1.37
2019-03-25T14:09:25.168Z,1.47
2019-03-25T14:11:53.516Z,1.45
2019-03-25T14:14:21.882Z,1.40
2019-03-25T14:16:50.296Z,2.17
2019-03-25T14:19:18.681Z,1.45
2019-03-25T14:21:47.116Z,2.90
2019-03-25T14:24:15.546Z,2.00
2019-03-25T14:26:43.991Z,1.57
2019-03-25T14:29:12.399Z,2.10
2019-03-25T14:31:40.842Z,2.47
2019-03-25T14:34:09.292Z,2.35
2019-03-25T14:36:37.727Z,2.33
2019-03-25T14:39:06.469Z,2.20
2019-03-25T14:41:34.896Z,2.47
2019-03-25T14:44:03.325Z,2.83
2019-03-25T14:46:31.730Z,1.67
2019-03-25T14:49:00.162Z,1.47
2019-03-25T14:51:28.578Z,1.62
2019-03-25T14:53:57.015Z,2.22
2019-03-25T14:56:25.450Z,1.40
2019-03-25T14:58:53.856Z,1.60
2019-03-25T15:01:22.302Z,2.00
2019-03-25T15:03:50.770Z,1.75
2019-03-25T15:06:19.201Z,1.50
2019-03-25T15:08:47.615Z,1.20
2019-03-25T15:11:16.016Z,1.40
2019-03-25T15:13:44.430Z,4.28
2019-03-25T15:16:12.871Z,1.55
2019-03-25T15:18:41.599Z,1.62
2019-03-25T15:21:10.011Z,1.80
2019-03-25T15:23:38.432Z,1.77
2019-03-25T15:26:08.014Z,2.02
2019-03-25T15:28:36.683Z,1.50
2019-03-25T15:31:05.096Z,1.20
2019-03-25T15:33:33.528Z,1.27
2019-03-25T15:36:01.943Z,2.10
2019-03-25T15:38:30.375Z,1.77
2019-03-25T15:40:58.787Z,1.72
2019-03-25T15:43:27.223Z,0.98
2019-03-25T15:45:57.756Z,1.57
2019-03-25T15:48:26.188Z,1.52
2019-03-25T15:50:54.738Z,1.02
2019-03-25T15:53:23.148Z,1.45
2019-03-25T15:55:51.583Z,1.80
2019-03-25T15:58:25.958Z,1.50
2019-03-25T16:00:50.094Z,2.00
2019-03-25T16:03:18.501Z,2.87
2019-03-25T16:05:46.908Z,3.25
2019-03-25T16:08:15.349Z,7.28
2019-03-25T16:10:43.758Z,7.53
2019-03-25T16:13:12.291Z,2.25
2019-03-25T16:15:41.404Z,1.82
2019-03-25T16:18:09.844Z,3.00
2019-03-25T16:20:38.264Z,3.75
2019-03-25T16:23:06.704Z,3.27
2019-03-25T16:25:35.135Z,3.98
2019-03-25T16:28:03.552Z,2.92
2019-03-25T16:30:31.996Z,3.05
2019-03-25T16:33:00.411Z,3.20
2019-03-25T16:35:28.847Z,3.10
2019-03-25T16:37:57.374Z,2.58
2019-03-25T16:40:25.811Z,2.62
2019-03-25T16:42:54.249Z,3.00
2019-03-25T16:45:22.661Z,3.22
2019-03-25T16:47:51.148Z,3.62
2019-03-25T16:50:19.519Z,3.50
2019-03-25T16:52:47.954Z,3.05
2019-03-25T16:55:20.407Z,2.90
2019-03-25T16:57:48.850Z,3.00
2019-03-25T17:00:26.797Z,3.05
2019-03-25T17:02:47.355Z,3.33
2019-03-25T17:05:15.792Z,3.77
2019-03-25T17:07:44.211Z,3.45
2019-03-25T17:10:12.648Z,2.58
2019-03-25T17:12:41.356Z,2.35
2019-03-25T17:15:10.447Z,2.90
2019-03-25T17:17:39.465Z,3.15
2019-03-25T17:20:07.900Z,2.47
2019-03-25T17:22:36.339Z,2.42
2019-03-25T17:25:05.551Z,2.60
2019-03-25T17:27:36.107Z,2.70
2019-03-25T17:30:28.283Z,2.95
2019-03-25T17:32:56.731Z,2.72
2019-03-25T17:35:25.153Z,2.40
2019-03-25T17:37:53.595Z,3.10
2019-03-25T17:40:23.019Z,2.52
2019-03-25T17:42:51.481Z,2.17
2019-03-25T17:45:20.909Z,2.65
2019-03-25T17:47:49.330Z,2.35
2019-03-25T17:50:17.763Z,3.12
2019-03-25T17:52:46.176Z,1.92
2019-03-25T17:55:14.620Z,1.80
2019-03-25T17:57:43.030Z,2.80
2019-03-25T18:00:11.788Z,2.20
2019-03-25T18:02:40.237Z,1.75
2019-03-25T18:05:08.660Z,2.12
2019-03-25T18:07:37.102Z,2.42
2019-03-25T18:10:06.526Z,2.62
2019-03-25T18:12:39.130Z,2.33
2019-03-25T18:15:10.861Z,2.20
2019-03-25T18:17:39.308Z,2.25
2019-03-25T18:20:18.079Z,2.00
2019-03-25T18:22:39.827Z,3.40
2019-03-25T18:25:08.638Z,2.70
2019-03-25T18:27:56.428Z,1.92
2019-03-25T18:30:34.084Z,2.60
2019-03-25T18:33:05.104Z,4.55
2019-03-25T18:35:33.475Z,12.20
2019-03-25T18:38:01.914Z,16.50
2019-03-25T18:40:30.355Z,17.17
2019-03-25T18:42:58.793Z,29.48
2019-03-25T18:45:27.238Z,26.95
2019-03-25T18:47:55.642Z,9.83
2019-03-25T18:50:24.376Z,6.78
2019-03-25T18:52:52.823Z,4.28
2019-03-25T18:55:21.598Z,2.70
2019-03-25T18:57:50.033Z,2.42
2019-03-25T19:00:20.408Z,2.72
2019-03-25T19:02:48.838Z,2.25
2019-03-25T19:05:17.256Z,3.08
2019-03-25T19:07:45.683Z,2.62
2019-03-25T19:10:15.688Z,2.55
2019-03-25T19:12:44.107Z,2.40
2019-03-25T19:15:12.526Z,2.35
2019-03-25T19:17:40.965Z,2.30
2019-03-25T19:20:09.383Z,1.55
2019-03-25T19:22:37.828Z,1.45
2019-03-25T19:25:06.257Z,2.15
2019-03-25T19:27:34.679Z,1.62
2019-03-25T19:30:03.820Z,1.77
2019-03-25T19:32:32.245Z,2.05
2019-03-25T19:35:00.695Z,1.70
2019-03-25T19:37:29.081Z,1.35
2019-03-25T19:39:57.514Z,1.85
2019-03-25T19:42:25.942Z,2.47
2019-03-25T19:44:54.386Z,1.62
2019-03-25T19:47:22.828Z,1.22
2019-03-25T19:49:51.236Z,1.77
2019-03-25T19:52:19.636Z,1.65
2019-03-25T19:54:48.082Z,2.20
2019-03-25T19:57:16.565Z,2.10
2019-03-25T19:59:45.023Z,1.40
2019-03-25T20:02:18.994Z,1.47
2019-03-25T20:04:43.523Z,1.65
2019-03-25T20:07:12.014Z,1.45
2019-03-25T20:09:42.510Z,1.70
2019-03-25T20:12:10.562Z,1.82
2019-03-25T20:14:39.023Z,1.92
2019-03-25T20:17:07.450Z,1.75
2019-03-25T20:19:35.867Z,1.85
2019-03-25T20:22:04.275Z,2.17
2019-03-25T20:24:32.715Z,2.12
2019-03-25T20:27:01.146Z,2.33
2019-03-25T20:29:29.592Z,1.95
2019-03-25T20:31:58.012Z,1.80
2019-03-25T20:34:26.481Z,1.98
2019-03-25T20:36:54.883Z,1.95
2019-03-25T20:39:23.361Z,2.35
2019-03-25T20:41:51.858Z,2.30
2019-03-25T20:44:20.445Z,2.05
2019-03-25T20:46:48.883Z,1.77
2019-03-25T20:49:17.296Z,2.83
2019-03-25T20:51:45.760Z,1.92
2019-03-25T20:54:14.187Z,2.20
2019-03-25T20:56:42.671Z,2.33
2019-03-25T20:59:11.283Z,2.60
2019-03-25T21:01:39.703Z,2.45
2019-03-25T21:04:08.139Z,2.52
2019-03-25T21:06:36.600Z,2.58
2019-03-25T21:09:05.609Z,1.77
2019-03-25T21:11:34.036Z,1.95
2019-03-25T21:14:02.464Z,1.00
2019-03-25T21:16:30.942Z,1.67
2019-03-25T21:18:59.449Z,1.67
2019-03-25T21:21:27.912Z,2.22
2019-03-25T21:23:56.411Z,1.92
2019-03-25T21:26:24.828Z,1.47
2019-03-25T21:28:53.248Z,1.15
2019-03-25T21:31:21.665Z,1.12
2019-03-25T21:33:50.114Z,1.27
2019-03-25T21:36:18.627Z,1.60
2019-03-25T21:38:47.101Z,1.37
2019-03-25T21:41:15.459Z,1.40
2019-03-25T21:43:43.977Z,1.22
2019-03-25T21:46:12.483Z,1.12
2019-03-25T21:48:40.950Z,0.80
2019-03-25T21:51:09.437Z,1.40
2019-03-25T21:53:37.844Z,1.07
2019-03-25T21:56:06.253Z,1.17
2019-03-25T21:58:34.694Z,0.98
2019-03-25T22:01:03.111Z,1.45
2019-03-25T22:03:31.501Z,1.15
2019-03-25T22:05:59.930Z,1.65
2019-03-25T22:08:28.343Z,0.90
2019-03-25T22:10:56.832Z,0.85
2019-03-25T22:13:25.248Z,0.93
2019-03-25T22:15:53.683Z,1.10
2019-03-25T22:18:22.120Z,1.10
2019-03-25T22:20:50.528Z,1.50
2019-03-25T22:23:18.969Z,0.95
2019-03-25T22:25:47.376Z,1.10
2019-03-25T22:28:15.815Z,1.75
2019-03-25T22:30:44.220Z,0.80
2019-03-25T22:33:24.791Z,1.02
2019-03-25T22:35:42.738Z,1.10
2019-03-25T22:38:11.159Z,1.10
2019-03-25T22:40:39.591Z,1.37
2019-03-25T22:43:08.001Z,1.30
2019-03-25T22:45:36.444Z,1.30
2019-03-25T22:48:07.249Z,2.17
2019-03-25T22:50:34.940Z,2.02
2019-03-25T22:53:03.360Z,2.17
2019-03-25T22:55:31.799Z,1.98
2019-03-25T22:58:00.247Z,2.20
2019-03-25T23:00:46.559Z,2.30
2019-03-25T23:03:15.487Z,2.42
2019-03-25T23:05:43.900Z,2.22
2019-03-25T23:08:12.339Z,1.95
2019-03-25T23:10:40.755Z,1.70
2019-03-25T23:13:09.199Z,1.52
2019-03-25T23:15:37.615Z,1.35
2019-03-25T23:18:06.051Z,1.45
2019-03-25T23:20:34.496Z,1.25
2019-03-25T23:23:02.904Z,1.52
2019-03-25T23:25:31.344Z,1.27
2019-03-25T23:27:59.743Z,1.40
2019-03-25T23:30:28.172Z,1.42
2019-03-25T23:32:56.597Z,2.58
2019-03-25T23:35:25.033Z,2.05
2019-03-25T23:37:53.464Z,1.20
2019-03-25T23:40:21.880Z,1.40
2019-03-25T23:42:50.312Z,0.90
2019-03-25T23:45:18.724Z,1.12
2019-03-25T23:47:47.166Z,0.93
2019-03-25T23:50:15.583Z,0.98
2019-03-25T23:52:44.022Z,0.65
2019-03-25T23:55:12.449Z,1.05
2019-03-25T23:57:43.615Z,0.80
